sensor_id;sensor_type;location;lat;lon;timestamp;P1;durP1;ratioP1;P2;durP2;ratioP2
37459;SDS011;23318;50.966;5.284;2022-11-15T00:00:26;22.27;;;15.18;;
37459;SDS011;23318;50.966;5.284;2022-11-15T00:02:54;24.42;;;15.32;;
37459;SDS011;23318;50.966;5.284;2022-11-15T00:05:20;24.33;;;16.08;;
37459;SDS011;23318;50.966;5.284;2022-11-15T00:07:46;26.25;;;15.95;;
37459;SDS011;23318;50.966;5.284;2022-11-15T00:10:12;25.15;;;16.48;;
37459;SDS011;23318;50.966;5.284;2022-11-15T00:12:38;24.00;;;15.73;;
37459;SDS011;23318;50.966;5.284;2022-11-15T00:15:04;23.23;;;15.77;;
37459;SDS011;23318;50.966;5.284;2022-11-15T00:17:30;23.20;;;15.13;;
37459;SDS011;23318;50.966;5.284;2022-11-15T00:19:55;24.00;;;15.88;;
37459;SDS011;23318;50.966;5.284;2022-11-15T00:22:21;23.58;;;15.90;;
37459;SDS011;23318;50.966;5.284;2022-11-15T00:24:47;22.17;;;15.10;;
37459;SDS011;23318;50.966;5.284;2022-11-15T00:27:12;23.42;;;14.57;;
37459;SDS011;23318;50.966;5.284;2022-11-15T00:29:38;21.90;;;14.30;;
37459;SDS011;23318;50.966;5.284;2022-11-15T00:32:08;20.02;;;13.75;;
37459;SDS011;23318;50.966;5.284;2022-11-15T00:34:34;20.10;;;15.13;;
37459;SDS011;23318;50.966;5.284;2022-11-15T00:37:00;22.73;;;14.35;;
37459;SDS011;23318;50.966;5.284;2022-11-15T00:39:25;21.40;;;14.07;;
37459;SDS011;23318;50.966;5.284;2022-11-15T00:41:51;24.35;;;14.80;;
37459;SDS011;23318;50.966;5.284;2022-11-15T00:44:16;21.10;;;14.57;;
37459;SDS011;23318;50.966;5.284;2022-11-15T00:46:42;22.67;;;14.00;;
37459;SDS011;23318;50.966;5.284;2022-11-15T00:49:08;24.63;;;14.40;;
37459;SDS011;23318;50.966;5.284;2022-11-15T00:51:33;22.33;;;14.15;;
37459;SDS011;23318;50.966;5.284;2022-11-15T00:53:59;22.05;;;14.40;;
37459;SDS011;23318;50.966;5.284;2022-11-15T00:56:25;19.45;;;14.38;;
37459;SDS011;23318;50.966;5.284;2022-11-15T00:58:51;21.60;;;14.27;;
37459;SDS011;23318;50.966;5.284;2022-11-15T01:01:17;24.15;;;15.48;;
37459;SDS011;23318;50.966;5.284;2022-11-15T01:03:43;21.02;;;14.68;;
37459;SDS011;23318;50.966;5.284;2022-11-15T01:06:09;23.63;;;14.70;;
37459;SDS011;23318;50.966;5.284;2022-11-15T01:08:35;25.25;;;15.07;;
37459;SDS011;23318;50.966;5.284;2022-11-15T01:11:05;26.73;;;15.75;;
37459;SDS011;23318;50.966;5.284;2022-11-15T01:13:33;26.48;;;14.85;;
37459;SDS011;23318;50.966;5.284;2022-11-15T01:16:13;26.40;;;15.93;;
37459;SDS011;23318;50.966;5.284;2022-11-15T01:18:42;26.73;;;15.95;;
37459;SDS011;23318;50.966;5.284;2022-11-15T01:21:10;24.73;;;15.43;;
37459;SDS011;23318;50.966;5.284;2022-11-15T01:23:37;21.42;;;15.23;;
37459;SDS011;23318;50.966;5.284;2022-11-15T01:26:04;22.10;;;14.05;;
37459;SDS011;23318;50.966;5.284;2022-11-15T01:28:32;20.48;;;14.27;;
37459;SDS011;23318;50.966;5.284;2022-11-15T01:31:00;23.00;;;14.30;;
37459;SDS011;23318;50.966;5.284;2022-11-15T01:33:27;24.30;;;13.85;;
37459;SDS011;23318;50.966;5.284;2022-11-15T01:35:55;22.50;;;14.27;;
37459;SDS011;23318;50.966;5.284;2022-11-15T01:38:21;22.67;;;14.57;;
37459;SDS011;23318;50.966;5.284;2022-11-15T01:40:47;19.10;;;13.60;;
37459;SDS011;23318;50.966;5.284;2022-11-15T01:43:30;21.73;;;14.70;;
37459;SDS011;23318;50.966;5.284;2022-11-15T01:46:12;23.13;;;14.77;;
37459;SDS011;23318;50.966;5.284;2022-11-15T01:48:46;20.88;;;13.55;;
37459;SDS011;23318;50.966;5.284;2022-11-15T01:51:15;21.42;;;14.52;;
37459;SDS011;23318;50.966;5.284;2022-11-15T01:53:45;26.10;;;14.57;;
37459;SDS011;23318;50.966;5.284;2022-11-15T01:56:16;25.85;;;13.90;;
37459;SDS011;23318;50.966;5.284;2022-11-15T01:58:44;19.95;;;13.70;;
37459;SDS011;23318;50.966;5.284;2022-11-15T02:01:11;22.45;;;14.38;;
37459;SDS011;23318;50.966;5.284;2022-11-15T02:03:45;26.02;;;14.75;;
37459;SDS011;23318;50.966;5.284;2022-11-15T02:06:18;21.27;;;13.95;;
37459;SDS011;23318;50.966;5.284;2022-11-15T02:08:45;22.98;;;14.02;;
37459;SDS011;23318;50.966;5.284;2022-11-15T02:11:11;26.45;;;13.23;;
37459;SDS011;23318;50.966;5.284;2022-11-15T02:13:36;20.85;;;13.48;;
37459;SDS011;23318;50.966;5.284;2022-11-15T02:16:09;16.05;;;12.50;;
37459;SDS011;23318;50.966;5.284;2022-11-15T02:18:59;26.95;;;13.55;;
37459;SDS011;23318;50.966;5.284;2022-11-15T02:32:54;18.88;;;13.50;;
37459;SDS011;23318;50.966;5.284;2022-11-15T02:39:03;21.42;;;14.40;;
37459;SDS011;23318;50.966;5.284;2022-11-15T02:41:17;21.20;;;13.30;;
37459;SDS011;23318;50.966;5.284;2022-11-15T02:43:54;17.63;;;12.57;;
37459;SDS011;23318;50.966;5.284;2022-11-15T02:46:31;16.90;;;12.82;;
37459;SDS011;23318;50.966;5.284;2022-11-15T02:49:20;17.55;;;12.65;;
37459;SDS011;23318;50.966;5.284;2022-11-15T02:51:48;22.92;;;12.77;;
37459;SDS011;23318;50.966;5.284;2022-11-15T02:54:25;19.73;;;12.73;;
37459;SDS011;23318;50.966;5.284;2022-11-15T02:56:55;19.08;;;12.85;;
37459;SDS011;23318;50.966;5.284;2022-11-15T03:05:15;21.38;;;13.63;;
37459;SDS011;23318;50.966;5.284;2022-11-15T03:15:52;27.08;;;15.52;;
37459;SDS011;23318;50.966;5.284;2022-11-15T03:18:34;23.02;;;15.82;;
37459;SDS011;23318;50.966;5.284;2022-11-15T03:21:04;22.85;;;15.80;;
37459;SDS011;23318;50.966;5.284;2022-11-15T03:23:32;27.55;;;16.77;;
37459;SDS011;23318;50.966;5.284;2022-11-15T03:26:00;27.60;;;17.38;;
37459;SDS011;23318;50.966;5.284;2022-11-15T03:28:32;27.60;;;18.63;;
37459;SDS011;23318;50.966;5.284;2022-11-15T03:31:03;32.00;;;18.10;;
37459;SDS011;23318;50.966;5.284;2022-11-15T03:33:52;30.85;;;19.27;;
37459;SDS011;23318;50.966;5.284;2022-11-15T03:36:21;36.15;;;19.73;;
37459;SDS011;23318;50.966;5.284;2022-11-15T03:38:49;34.28;;;19.90;;
37459;SDS011;23318;50.966;5.284;2022-11-15T03:41:25;30.70;;;19.73;;
37459;SDS011;23318;50.966;5.284;2022-11-15T03:44:45;35.00;;;20.42;;
37459;SDS011;23318;50.966;5.284;2022-11-15T03:46:54;29.77;;;19.88;;
37459;SDS011;23318;50.966;5.284;2022-11-15T03:49:29;30.08;;;19.52;;
37459;SDS011;23318;50.966;5.284;2022-11-15T03:52:02;31.38;;;19.48;;
37459;SDS011;23318;50.966;5.284;2022-11-15T03:54:28;31.05;;;18.77;;
37459;SDS011;23318;50.966;5.284;2022-11-15T03:56:54;33.83;;;19.67;;
37459;SDS011;23318;50.966;5.284;2022-11-15T03:59:20;32.72;;;19.63;;
37459;SDS011;23318;50.966;5.284;2022-11-15T04:01:45;37.90;;;20.10;;
37459;SDS011;23318;50.966;5.284;2022-11-15T04:04:11;31.02;;;19.52;;
37459;SDS011;23318;50.966;5.284;2022-11-15T04:06:37;38.75;;;20.50;;
37459;SDS011;23318;50.966;5.284;2022-11-15T04:09:03;34.95;;;20.33;;
37459;SDS011;23318;50.966;5.284;2022-11-15T04:11:28;35.13;;;20.77;;
37459;SDS011;23318;50.966;5.284;2022-11-15T04:13:54;37.53;;;19.80;;
37459;SDS011;23318;50.966;5.284;2022-11-15T04:16:20;32.58;;;20.65;;
37459;SDS011;23318;50.966;5.284;2022-11-15T04:18:45;30.17;;;19.98;;
37459;SDS011;23318;50.966;5.284;2022-11-15T04:21:31;32.40;;;21.20;;
37459;SDS011;23318;50.966;5.284;2022-11-15T04:26:41;35.53;;;19.98;;
37459;SDS011;23318;50.966;5.284;2022-11-15T04:29:07;37.85;;;21.65;;
37459;SDS011;23318;50.966;5.284;2022-11-15T04:31:51;32.80;;;20.48;;
37459;SDS011;23318;50.966;5.284;2022-11-15T04:34:17;31.75;;;20.52;;
37459;SDS011;23318;50.966;5.284;2022-11-15T04:36:42;38.30;;;21.90;;
37459;SDS011;23318;50.966;5.284;2022-11-15T04:39:26;43.47;;;22.25;;
37459;SDS011;23318;50.966;5.284;2022-11-15T04:41:52;37.20;;;22.42;;
37459;SDS011;23318;50.966;5.284;2022-11-15T04:44:18;34.72;;;22.27;;
37459;SDS011;23318;50.966;5.284;2022-11-15T04:46:43;33.17;;;21.02;;
37459;SDS011;23318;50.966;5.284;2022-11-15T04:49:09;32.15;;;21.02;;
37459;SDS011;23318;50.966;5.284;2022-11-15T04:51:34;40.15;;;22.35;;
37459;SDS011;23318;50.966;5.284;2022-11-15T04:54:00;26.58;;;17.42;;
37459;SDS011;23318;50.966;5.284;2022-11-15T04:56:26;21.33;;;14.88;;
37459;SDS011;23318;50.966;5.284;2022-11-15T04:58:51;15.48;;;8.38;;
37459;SDS011;23318;50.966;5.284;2022-11-15T05:01:17;11.10;;;7.15;;
37459;SDS011;23318;50.966;5.284;2022-11-15T05:03:43;11.35;;;6.47;;
37459;SDS011;23318;50.966;5.284;2022-11-15T05:06:28;12.48;;;6.78;;
37459;SDS011;23318;50.966;5.284;2022-11-15T05:08:54;16.77;;;8.40;;
37459;SDS011;23318;50.966;5.284;2022-11-15T05:11:20;15.18;;;8.75;;
37459;SDS011;23318;50.966;5.284;2022-11-15T05:13:46;12.75;;;8.48;;
37459;SDS011;23318;50.966;5.284;2022-11-15T05:16:12;10.80;;;7.80;;
37459;SDS011;23318;50.966;5.284;2022-11-15T05:18:38;13.02;;;7.68;;
37459;SDS011;23318;50.966;5.284;2022-11-15T05:21:07;9.40;;;6.55;;
37459;SDS011;23318;50.966;5.284;2022-11-15T05:23:37;10.73;;;7.50;;
37459;SDS011;23318;50.966;5.284;2022-11-15T05:26:03;12.18;;;7.57;;
37459;SDS011;23318;50.966;5.284;2022-11-15T05:28:30;12.32;;;6.43;;
37459;SDS011;23318;50.966;5.284;2022-11-15T05:31:00;12.70;;;7.28;;
37459;SDS011;23318;50.966;5.284;2022-11-15T05:33:34;13.57;;;7.10;;
37459;SDS011;23318;50.966;5.284;2022-11-15T05:36:03;12.60;;;6.63;;
37459;SDS011;23318;50.966;5.284;2022-11-15T05:38:30;12.15;;;6.32;;
37459;SDS011;23318;50.966;5.284;2022-11-15T05:40:56;12.52;;;7.00;;
37459;SDS011;23318;50.966;5.284;2022-11-15T05:43:22;15.02;;;7.57;;
37459;SDS011;23318;50.966;5.284;2022-11-15T05:45:48;17.73;;;8.32;;
37459;SDS011;23318;50.966;5.284;2022-11-15T05:48:14;14.95;;;7.55;;
37459;SDS011;23318;50.966;5.284;2022-11-15T05:50:41;13.38;;;7.88;;
37459;SDS011;23318;50.966;5.284;2022-11-15T05:53:10;18.70;;;8.38;;
37459;SDS011;23318;50.966;5.284;2022-11-15T05:55:38;12.85;;;7.90;;
37459;SDS011;23318;50.966;5.284;2022-11-15T05:58:04;13.98;;;7.90;;
37459;SDS011;23318;50.966;5.284;2022-11-15T06:00:30;14.88;;;8.32;;
37459;SDS011;23318;50.966;5.284;2022-11-15T06:02:56;18.20;;;9.38;;
37459;SDS011;23318;50.966;5.284;2022-11-15T06:05:21;12.90;;;8.18;;
37459;SDS011;23318;50.966;5.284;2022-11-15T06:07:47;21.92;;;8.98;;
37459;SDS011;23318;50.966;5.284;2022-11-15T06:10:13;15.85;;;8.55;;
37459;SDS011;23318;50.966;5.284;2022-11-15T06:12:38;17.20;;;8.85;;
37459;SDS011;23318;50.966;5.284;2022-11-15T06:15:04;19.58;;;10.15;;
37459;SDS011;23318;50.966;5.284;2022-11-15T06:17:30;18.88;;;9.95;;
37459;SDS011;23318;50.966;5.284;2022-11-15T06:19:56;23.17;;;10.07;;
37459;SDS011;23318;50.966;5.284;2022-11-15T06:22:21;19.85;;;10.45;;
37459;SDS011;23318;50.966;5.284;2022-11-15T06:24:47;19.50;;;11.30;;
37459;SDS011;23318;50.966;5.284;2022-11-15T06:27:13;23.67;;;10.88;;
37459;SDS011;23318;50.966;5.284;2022-11-15T06:29:38;20.15;;;10.73;;
37459;SDS011;23318;50.966;5.284;2022-11-15T06:32:04;24.33;;;11.05;;
37459;SDS011;23318;50.966;5.284;2022-11-15T06:34:29;19.00;;;10.65;;
37459;SDS011;23318;50.966;5.284;2022-11-15T06:36:55;24.60;;;11.48;;
37459;SDS011;23318;50.966;5.284;2022-11-15T06:39:21;19.90;;;12.05;;
37459;SDS011;23318;50.966;5.284;2022-11-15T06:41:46;23.05;;;11.68;;
37459;SDS011;23318;50.966;5.284;2022-11-15T06:44:12;22.27;;;11.98;;
37459;SDS011;23318;50.966;5.284;2022-11-15T06:46:37;21.45;;;11.65;;
37459;SDS011;23318;50.966;5.284;2022-11-15T06:49:03;25.63;;;12.23;;
37459;SDS011;23318;50.966;5.284;2022-11-15T06:51:29;20.52;;;12.00;;
37459;SDS011;23318;50.966;5.284;2022-11-15T06:53:54;22.90;;;11.48;;
37459;SDS011;23318;50.966;5.284;2022-11-15T06:56:20;18.92;;;10.85;;
37459;SDS011;23318;50.966;5.284;2022-11-15T06:58:46;21.40;;;11.50;;
37459;SDS011;23318;50.966;5.284;2022-11-15T07:01:11;15.48;;;10.90;;
37459;SDS011;23318;50.966;5.284;2022-11-15T07:03:38;22.45;;;10.38;;
37459;SDS011;23318;50.966;5.284;2022-11-15T07:06:05;21.00;;;10.07;;
37459;SDS011;23318;50.966;5.284;2022-11-15T07:08:32;25.90;;;11.50;;
37459;SDS011;23318;50.966;5.284;2022-11-15T07:10:58;17.88;;;10.48;;
37459;SDS011;23318;50.966;5.284;2022-11-15T07:13:27;15.00;;;9.68;;
37459;SDS011;23318;50.966;5.284;2022-11-15T07:15:53;19.00;;;9.40;;
37459;SDS011;23318;50.966;5.284;2022-11-15T07:18:19;17.70;;;8.95;;
37459;SDS011;23318;50.966;5.284;2022-11-15T07:20:45;13.65;;;9.52;;
37459;SDS011;23318;50.966;5.284;2022-11-15T07:23:10;14.25;;;8.45;;
37459;SDS011;23318;50.966;5.284;2022-11-15T07:25:36;14.73;;;8.80;;
37459;SDS011;23318;50.966;5.284;2022-11-15T07:28:02;15.15;;;9.45;;
37459;SDS011;23318;50.966;5.284;2022-11-15T07:30:28;13.40;;;9.63;;
37459;SDS011;23318;50.966;5.284;2022-11-15T07:32:57;15.60;;;9.75;;
37459;SDS011;23318;50.966;5.284;2022-11-15T07:35:25;15.95;;;8.70;;
37459;SDS011;23318;50.966;5.284;2022-11-15T07:37:58;22.30;;;9.48;;
37459;SDS011;23318;50.966;5.284;2022-11-15T07:40:26;19.60;;;9.70;;
37459;SDS011;23318;50.966;5.284;2022-11-15T07:42:58;22.02;;;9.93;;
37459;SDS011;23318;50.966;5.284;2022-11-15T07:45:28;15.07;;;10.13;;
37459;SDS011;23318;50.966;5.284;2022-11-15T07:47:54;13.50;;;9.40;;
37459;SDS011;23318;50.966;5.284;2022-11-15T07:50:21;17.27;;;9.98;;
37459;SDS011;23318;50.966;5.284;2022-11-15T07:52:53;18.00;;;9.75;;
37459;SDS011;23318;50.966;5.284;2022-11-15T07:55:20;13.85;;;9.70;;
37459;SDS011;23318;50.966;5.284;2022-11-15T07:57:46;19.00;;;9.85;;
37459;SDS011;23318;50.966;5.284;2022-11-15T08:00:12;14.13;;;10.18;;
37459;SDS011;23318;50.966;5.284;2022-11-15T08:02:38;14.07;;;9.88;;
37459;SDS011;23318;50.966;5.284;2022-11-15T08:05:04;15.32;;;9.70;;
37459;SDS011;23318;50.966;5.284;2022-11-15T08:07:30;18.75;;;9.52;;
37459;SDS011;23318;50.966;5.284;2022-11-15T08:09:56;16.42;;;10.05;;
37459;SDS011;23318;50.966;5.284;2022-11-15T08:12:22;19.60;;;10.60;;
37459;SDS011;23318;50.966;5.284;2022-11-15T08:14:48;20.13;;;9.05;;
37459;SDS011;23318;50.966;5.284;2022-11-15T08:17:14;13.73;;;9.40;;
37459;SDS011;23318;50.966;5.284;2022-11-15T08:19:40;16.00;;;9.27;;
37459;SDS011;23318;50.966;5.284;2022-11-15T08:22:05;14.23;;;9.00;;
37459;SDS011;23318;50.966;5.284;2022-11-15T08:24:31;14.13;;;8.70;;
37459;SDS011;23318;50.966;5.284;2022-11-15T08:26:57;13.13;;;8.43;;
37459;SDS011;23318;50.966;5.284;2022-11-15T08:29:23;9.65;;;7.00;;
37459;SDS011;23318;50.966;5.284;2022-11-15T08:31:48;11.15;;;7.20;;
37459;SDS011;23318;50.966;5.284;2022-11-15T08:34:14;11.43;;;6.40;;
37459;SDS011;23318;50.966;5.284;2022-11-15T08:36:39;10.02;;;5.15;;
37459;SDS011;23318;50.966;5.284;2022-11-15T08:39:05;5.53;;;4.28;;
37459;SDS011;23318;50.966;5.284;2022-11-15T08:41:32;10.60;;;3.92;;
37459;SDS011;23318;50.966;5.284;2022-11-15T08:44:00;5.57;;;4.03;;
37459;SDS011;23318;50.966;5.284;2022-11-15T08:46:26;8.98;;;3.10;;
37459;SDS011;23318;50.966;5.284;2022-11-15T08:48:52;10.05;;;2.60;;
37459;SDS011;23318;50.966;5.284;2022-11-15T08:51:18;4.35;;;2.58;;
37459;SDS011;23318;50.966;5.284;2022-11-15T08:53:44;5.75;;;2.40;;
37459;SDS011;23318;50.966;5.284;2022-11-15T08:56:10;9.50;;;2.22;;
37459;SDS011;23318;50.966;5.284;2022-11-15T08:58:38;6.18;;;2.10;;
37459;SDS011;23318;50.966;5.284;2022-11-15T09:01:04;6.88;;;1.80;;
37459;SDS011;23318;50.966;5.284;2022-11-15T09:03:30;7.15;;;1.67;;
37459;SDS011;23318;50.966;5.284;2022-11-15T09:05:57;6.13;;;1.45;;
37459;SDS011;23318;50.966;5.284;2022-11-15T09:08:33;5.07;;;1.42;;
37459;SDS011;23318;50.966;5.284;2022-11-15T09:11:02;7.78;;;1.85;;
37459;SDS011;23318;50.966;5.284;2022-11-15T09:13:29;4.43;;;1.10;;
37459;SDS011;23318;50.966;5.284;2022-11-15T09:15:58;3.00;;;1.02;;
37459;SDS011;23318;50.966;5.284;2022-11-15T09:18:25;5.80;;;1.00;;
37459;SDS011;23318;50.966;5.284;2022-11-15T09:20:51;5.03;;;1.45;;
37459;SDS011;23318;50.966;5.284;2022-11-15T09:23:19;3.95;;;1.27;;
37459;SDS011;23318;50.966;5.284;2022-11-15T09:25:45;2.30;;;1.20;;
37459;SDS011;23318;50.966;5.284;2022-11-15T09:28:11;5.63;;;1.80;;
37459;SDS011;23318;50.966;5.284;2022-11-15T09:30:36;4.65;;;1.50;;
37459;SDS011;23318;50.966;5.284;2022-11-15T09:33:08;4.78;;;1.35;;
37459;SDS011;23318;50.966;5.284;2022-11-15T09:35:35;6.57;;;1.33;;
37459;SDS011;23318;50.966;5.284;2022-11-15T09:38:01;6.90;;;1.58;;
37459;SDS011;23318;50.966;5.284;2022-11-15T09:40:29;5.50;;;1.58;;
37459;SDS011;23318;50.966;5.284;2022-11-15T09:50:54;5.18;;;1.48;;
37459;SDS011;23318;50.966;5.284;2022-11-15T09:53:43;5.68;;;1.20;;
37459;SDS011;23318;50.966;5.284;2022-11-15T09:56:20;4.93;;;1.50;;
37459;SDS011;23318;50.966;5.284;2022-11-15T10:01:36;3.13;;;1.35;;
37459;SDS011;23318;50.966;5.284;2022-11-15T10:04:36;6.68;;;1.42;;
37459;SDS011;23318;50.966;5.284;2022-11-15T10:07:12;7.53;;;1.20;;
37459;SDS011;23318;50.966;5.284;2022-11-15T10:09:48;5.93;;;1.00;;
37459;SDS011;23318;50.966;5.284;2022-11-15T10:12:18;7.35;;;1.35;;
37459;SDS011;23318;50.966;5.284;2022-11-15T10:14:45;5.15;;;1.20;;
37459;SDS011;23318;50.966;5.284;2022-11-15T10:22:48;8.68;;;1.08;;
37459;SDS011;23318;50.966;5.284;2022-11-15T10:27:47;4.82;;;0.98;;
37459;SDS011;23318;50.966;5.284;2022-11-15T10:30:18;5.53;;;1.10;;
37459;SDS011;23318;50.966;5.284;2022-11-15T10:32:48;3.78;;;1.23;;
37459;SDS011;23318;50.966;5.284;2022-11-15T10:37:43;4.90;;;1.08;;
37459;SDS011;23318;50.966;5.284;2022-11-15T10:40:15;10.02;;;1.40;;
37459;SDS011;23318;50.966;5.284;2022-11-15T10:45:34;6.05;;;1.20;;
37459;SDS011;23318;50.966;5.284;2022-11-15T10:50:42;5.68;;;1.10;;
37459;SDS011;23318;50.966;5.284;2022-11-15T10:53:15;8.07;;;1.20;;
37459;SDS011;23318;50.966;5.284;2022-11-15T10:55:53;9.00;;;2.38;;
37459;SDS011;23318;50.966;5.284;2022-11-15T10:58:30;5.75;;;1.13;;
37459;SDS011;23318;50.966;5.284;2022-11-15T11:03:44;9.20;;;2.08;;
37459;SDS011;23318;50.966;5.284;2022-11-15T11:06:12;5.32;;;1.15;;
37459;SDS011;23318;50.966;5.284;2022-11-15T11:08:58;5.60;;;1.05;;
37459;SDS011;23318;50.966;5.284;2022-11-15T11:14:24;3.72;;;0.90;;
37459;SDS011;23318;50.966;5.284;2022-11-15T11:20:16;4.05;;;1.10;;
37459;SDS011;23318;50.966;5.284;2022-11-15T11:25:35;5.18;;;1.10;;
37459;SDS011;23318;50.966;5.284;2022-11-15T11:28:18;6.82;;;1.02;;
37459;SDS011;23318;50.966;5.284;2022-11-15T11:33:31;3.92;;;0.90;;
37459;SDS011;23318;50.966;5.284;2022-11-15T11:36:11;5.47;;;1.00;;
37459;SDS011;23318;50.966;5.284;2022-11-15T11:41:46;3.60;;;0.80;;
37459;SDS011;23318;50.966;5.284;2022-11-15T11:47:09;3.70;;;0.95;;
37459;SDS011;23318;50.966;5.284;2022-11-15T11:49:45;7.65;;;1.23;;
37459;SDS011;23318;50.966;5.284;2022-11-15T11:52:30;5.88;;;1.10;;
37459;SDS011;23318;50.966;5.284;2022-11-15T11:55:02;6.30;;;1.70;;
37459;SDS011;23318;50.966;5.284;2022-11-15T12:00:22;4.22;;;0.93;;
37459;SDS011;23318;50.966;5.284;2022-11-15T12:05:44;4.50;;;1.08;;
37459;SDS011;23318;50.966;5.284;2022-11-15T12:13:36;6.78;;;1.23;;
37459;SDS011;23318;50.966;5.284;2022-11-15T12:16:14;12.27;;;1.27;;
37459;SDS011;23318;50.966;5.284;2022-11-15T12:18:53;6.60;;;1.10;;
37459;SDS011;23318;50.966;5.284;2022-11-15T12:24:24;4.47;;;1.00;;
37459;SDS011;23318;50.966;5.284;2022-11-15T12:26:59;5.80;;;1.40;;
37459;SDS011;23318;50.966;5.284;2022-11-15T12:29:42;6.40;;;1.67;;
37459;SDS011;23318;50.966;5.284;2022-11-15T12:34:54;2.25;;;0.80;;
37459;SDS011;23318;50.966;5.284;2022-11-15T12:44:56;7.15;;;1.30;;
37459;SDS011;23318;50.966;5.284;2022-11-15T12:47:25;6.75;;;1.05;;
37459;SDS011;23318;50.966;5.284;2022-11-15T12:49:51;7.10;;;0.95;;
37459;SDS011;23318;50.966;5.284;2022-11-15T12:52:17;5.72;;;1.10;;
37459;SDS011;23318;50.966;5.284;2022-11-15T13:20:30;4.43;;;1.00;;
37459;SDS011;23318;50.966;5.284;2022-11-15T13:30:48;4.32;;;1.15;;
37459;SDS011;23318;50.966;5.284;2022-11-15T13:33:23;4.70;;;0.88;;
37459;SDS011;23318;50.966;5.284;2022-11-15T13:35:53;4.57;;;0.98;;
37459;SDS011;23318;50.966;5.284;2022-11-15T13:40:50;5.80;;;0.90;;
37459;SDS011;23318;50.966;5.284;2022-11-15T13:46:03;3.78;;;0.88;;
37459;SDS011;23318;50.966;5.284;2022-11-15T13:48:42;3.03;;;1.00;;
37459;SDS011;23318;50.966;5.284;2022-11-15T13:51:31;5.72;;;1.23;;
37459;SDS011;23318;50.966;5.284;2022-11-15T13:56:34;3.22;;;1.00;;
37459;SDS011;23318;50.966;5.284;2022-11-15T13:59:08;4.85;;;1.30;;
37459;SDS011;23318;50.966;5.284;2022-11-15T14:01:41;4.70;;;1.10;;
37459;SDS011;23318;50.966;5.284;2022-11-15T14:04:09;1.65;;;0.80;;
37459;SDS011;23318;50.966;5.284;2022-11-15T14:06:43;5.30;;;1.00;;
37459;SDS011;23318;50.966;5.284;2022-11-15T14:11:37;3.33;;;1.23;;
37459;SDS011;23318;50.966;5.284;2022-11-15T14:14:14;1.45;;;0.85;;
37459;SDS011;23318;50.966;5.284;2022-11-15T14:16:44;3.40;;;1.10;;
37459;SDS011;23318;50.966;5.284;2022-11-15T14:19:56;4.20;;;1.08;;
37459;SDS011;23318;50.966;5.284;2022-11-15T14:22:13;3.00;;;0.60;;
37459;SDS011;23318;50.966;5.284;2022-11-15T14:24:43;4.75;;;0.98;;
37459;SDS011;23318;50.966;5.284;2022-11-15T14:29:46;3.90;;;1.10;;
37459;SDS011;23318;50.966;5.284;2022-11-15T14:32:20;5.75;;;1.10;;
37459;SDS011;23318;50.966;5.284;2022-11-15T14:34:46;4.80;;;1.75;;
37459;SDS011;23318;50.966;5.284;2022-11-15T14:37:18;3.13;;;1.10;;
37459;SDS011;23318;50.966;5.284;2022-11-15T14:39:44;5.13;;;1.05;;
37459;SDS011;23318;50.966;5.284;2022-11-15T14:42:09;5.25;;;1.15;;
37459;SDS011;23318;50.966;5.284;2022-11-15T14:44:35;2.30;;;1.15;;
37459;SDS011;23318;50.966;5.284;2022-11-15T14:47:01;4.03;;;1.23;;
37459;SDS011;23318;50.966;5.284;2022-11-15T14:49:26;7.15;;;1.20;;
37459;SDS011;23318;50.966;5.284;2022-11-15T14:51:52;5.22;;;0.90;;
37459;SDS011;23318;50.966;5.284;2022-11-15T14:54:17;3.20;;;1.27;;
37459;SDS011;23318;50.966;5.284;2022-11-15T14:56:43;5.15;;;1.33;;
37459;SDS011;23318;50.966;5.284;2022-11-15T14:59:09;4.15;;;1.35;;
37459;SDS011;23318;50.966;5.284;2022-11-15T15:01:34;3.33;;;1.10;;
37459;SDS011;23318;50.966;5.284;2022-11-15T15:04:00;3.22;;;1.40;;
37459;SDS011;23318;50.966;5.284;2022-11-15T15:06:26;1.65;;;1.10;;
37459;SDS011;23318;50.966;5.284;2022-11-15T15:08:51;3.00;;;1.48;;
37459;SDS011;23318;50.966;5.284;2022-11-15T15:11:21;3.10;;;1.10;;
37459;SDS011;23318;50.966;5.284;2022-11-15T15:13:50;4.85;;;1.20;;
37459;SDS011;23318;50.966;5.284;2022-11-15T15:16:17;5.00;;;1.40;;
37459;SDS011;23318;50.966;5.284;2022-11-15T15:18:43;2.88;;;1.25;;
37459;SDS011;23318;50.966;5.284;2022-11-15T15:21:24;2.30;;;1.13;;
37459;SDS011;23318;50.966;5.284;2022-11-15T15:23:56;2.08;;;1.15;;
37459;SDS011;23318;50.966;5.284;2022-11-15T15:26:22;1.30;;;1.00;;
37459;SDS011;23318;50.966;5.284;2022-11-15T15:28:49;2.80;;;1.23;;
37459;SDS011;23318;50.966;5.284;2022-11-15T15:31:16;1.83;;;1.17;;
37459;SDS011;23318;50.966;5.284;2022-11-15T15:33:42;3.00;;;1.05;;
37459;SDS011;23318;50.966;5.284;2022-11-15T15:36:12;3.38;;;1.42;;
37459;SDS011;23318;50.966;5.284;2022-11-15T15:38:39;5.20;;;1.40;;
37459;SDS011;23318;50.966;5.284;2022-11-15T15:41:12;3.97;;;1.25;;
37459;SDS011;23318;50.966;5.284;2022-11-15T15:43:39;2.72;;;1.17;;
37459;SDS011;23318;50.966;5.284;2022-11-15T15:46:12;7.18;;;1.40;;
37459;SDS011;23318;50.966;5.284;2022-11-15T15:48:40;4.07;;;1.80;;
37459;SDS011;23318;50.966;5.284;2022-11-15T15:51:06;2.67;;;1.77;;
37459;SDS011;23318;50.966;5.284;2022-11-15T15:53:32;3.58;;;1.88;;
37459;SDS011;23318;50.966;5.284;2022-11-15T15:55:58;4.18;;;2.28;;
37459;SDS011;23318;50.966;5.284;2022-11-15T15:58:23;5.70;;;2.58;;
37459;SDS011;23318;50.966;5.284;2022-11-15T16:00:49;4.90;;;2.22;;
37459;SDS011;23318;50.966;5.284;2022-11-15T16:03:15;3.70;;;2.00;;
37459;SDS011;23318;50.966;5.284;2022-11-15T16:05:41;3.85;;;2.30;;
37459;SDS011;23318;50.966;5.284;2022-11-15T16:08:12;6.63;;;2.58;;
37459;SDS011;23318;50.966;5.284;2022-11-15T16:10:48;4.20;;;2.60;;
37459;SDS011;23318;50.966;5.284;2022-11-15T16:13:14;4.05;;;2.38;;
37459;SDS011;23318;50.966;5.284;2022-11-15T16:15:40;8.65;;;2.92;;
37459;SDS011;23318;50.966;5.284;2022-11-15T16:18:08;10.52;;;3.38;;
37459;SDS011;23318;50.966;5.284;2022-11-15T16:20:44;5.20;;;3.55;;
37459;SDS011;23318;50.966;5.284;2022-11-15T16:25:44;10.13;;;3.95;;
37459;SDS011;23318;50.966;5.284;2022-11-15T16:30:46;9.18;;;3.92;;
37459;SDS011;23318;50.966;5.284;2022-11-15T16:33:11;8.32;;;4.60;;
37459;SDS011;23318;50.966;5.284;2022-11-15T16:35:37;11.32;;;5.07;;
37459;SDS011;23318;50.966;5.284;2022-11-15T16:38:03;12.57;;;5.63;;
37459;SDS011;23318;50.966;5.284;2022-11-15T16:40:29;9.27;;;5.00;;
37459;SDS011;23318;50.966;5.284;2022-11-15T16:42:57;7.38;;;4.60;;
37459;SDS011;23318;50.966;5.284;2022-11-15T16:45:24;14.50;;;6.07;;
37459;SDS011;23318;50.966;5.284;2022-11-15T16:47:53;9.65;;;4.95;;
37459;SDS011;23318;50.966;5.284;2022-11-15T16:50:20;8.23;;;5.15;;
37459;SDS011;23318;50.966;5.284;2022-11-15T16:52:57;4.78;;;4.07;;
37459;SDS011;23318;50.966;5.284;2022-11-15T16:55:27;9.82;;;5.18;;
37459;SDS011;23318;50.966;5.284;2022-11-15T16:57:54;9.10;;;4.72;;
37459;SDS011;23318;50.966;5.284;2022-11-15T17:00:21;8.68;;;4.63;;
37459;SDS011;23318;50.966;5.284;2022-11-15T17:02:48;10.10;;;4.63;;
37459;SDS011;23318;50.966;5.284;2022-11-15T17:05:15;11.18;;;5.13;;
37459;SDS011;23318;50.966;5.284;2022-11-15T17:07:42;7.95;;;4.90;;
37459;SDS011;23318;50.966;5.284;2022-11-15T17:10:13;9.80;;;6.05;;
37459;SDS011;23318;50.966;5.284;2022-11-15T17:12:38;11.82;;;6.78;;
37459;SDS011;23318;50.966;5.284;2022-11-15T17:15:04;10.40;;;5.88;;
37459;SDS011;23318;50.966;5.284;2022-11-15T17:17:31;13.35;;;6.30;;
37459;SDS011;23318;50.966;5.284;2022-11-15T17:19:57;8.98;;;5.95;;